Time;durP1;ratioP1;P1;durP2;ratioP2;P2;SDS_P1;SDS_P2;PMS_P1;PMS_P2;Temp;Humidity;BMP_temperature;BMP_pressure;BME280_temperature;BME280_humidity;BME280_pressure;Samples;Min_cycle;Max_cycle;Signal;HPM_P1;HPM_P2
2022/06/18 00:01:38;;;;;;;9.10;3.42;;;563.70;1971.20;;;;;;5115156;28;20026;-74
2022/06/18 00:04:14;;;;;;;6.43;2.97;;;563.70;1996.80;;;;;;5097258;28;20536;-74
2022/06/18 00:07:03;;;;;;;10.27;4.35;;;563.60;1996.80;;;;;;5112782;28;20028;-75
2022/06/18 00:09:34;;;;;;;7.32;3.15;;;563.60;2022.40;;;;;;5114070;28;20028;-74
2022/06/18 00:14:54;;;;;;;12.73;4.07;;;563.50;2022.40;;;;;;5114803;28;20111;-75
2022/06/18 00:17:19;;;;;;;5.15;3.60;;;563.50;2022.40;;;;;;5115046;28;20095;-75
2022/06/18 00:19:47;;;;;;;6.00;3.15;;;563.50;2022.40;;;;;;5115363;28;20031;-74
2022/06/18 00:22:16;;;;;;;8.20;3.90;;;563.40;2022.40;;;;;;5115052;28;21388;-74
2022/06/18 00:24:42;;;;;;;6.00;3.60;;;563.40;2048.00;;;;;;5112778;28;20020;-75
2022/06/18 00:27:11;;;;;;;6.85;3.17;;;563.20;2048.00;;;;;;5114941;28;20542;-74
2022/06/18 00:29:37;;;;;;;11.43;3.38;;;563.30;2022.40;;;;;;5115099;28;20020;-75
2022/06/18 00:32:03;;;;;;;9.20;3.53;;;563.30;1996.80;;;;;;5096647;28;20016;-74
2022/06/18 00:34:29;;;;;;;11.63;3.53;;;563.30;1996.80;;;;;;5114889;28;20031;-74
2022/06/18 00:36:57;;;;;;;5.70;3.13;;;563.30;1971.20;;;;;;5114777;28;20080;-75
2022/06/18 00:39:23;;;;;;;12.27;3.65;;;563.30;1971.20;;;;;;5095802;28;20435;-75
2022/06/18 00:41:53;;;;;;;6.47;3.35;;;563.40;1945.60;;;;;;5115214;28;20490;-75
2022/06/18 00:44:38;;;;;;;5.18;3.53;;;563.40;1945.60;;;;;;5112032;28;20024;-74
2022/06/18 00:47:39;;;;;;;4.97;3.17;;;563.30;1920.00;;;;;;5112733;28;20019;-74
2022/06/18 00:50:16;;;;;;;6.60;3.05;;;563.20;1920.00;;;;;;5112653;28;20020;-75
2022/06/18 00:52:51;;;;;;;5.03;3.42;;;563.20;1945.60;;;;;;5112182;28;20465;-74
2022/06/18 00:55:19;;;;;;;7.10;3.45;;;538.50;1920.00;;;;;;5114285;28;20046;-75
2022/06/18 00:57:57;;;;;;;4.13;3.17;;;538.50;1920.00;;;;;;5113428;28;20023;-75
2022/06/18 01:00:36;;;;;;;7.22;3.25;;;538.50;1920.00;;;;;;5093787;28;20031;-74
2022/06/18 01:03:03;;;;;;;5.93;3.00;;;538.50;1894.40;;;;;;5111760;28;20377;-74
2022/06/18 01:05:39;;;;;;;3.72;2.63;;;563.20;1920.00;;;;;;5114542;28;20023;-75
2022/06/18 01:08:14;;;;;;;6.65;3.25;;;563.20;1920.00;;;;;;5111996;28;20016;-74
2022/06/18 01:10:45;;;;;;;6.75;2.92;;;538.50;1894.40;;;;;;5114355;28;20042;-74
2022/06/18 01:13:17;;;;;;;6.00;3.17;;;563.20;1920.00;;;;;;5114162;28;20011;-75
2022/06/18 01:15:44;;;;;;;5.20;3.63;;;538.50;1920.00;;;;;;5111507;28;20054;-75
2022/06/18 01:18:12;;;;;;;4.28;3.13;;;538.50;1920.00;;;;;;5113982;28;20025;-74
2022/06/18 01:20:55;;;;;;;4.72;2.67;;;;;;;;;;5113842;28;20027;-75
2022/06/18 01:23:24;;;;;;;10.48;3.42;;;;;;;;;;5113917;28;20024;-75
2022/06/18 01:25:51;;;;;;;4.97;2.78;;;;;;;;;;5095798;28;20076;-74
2022/06/18 01:28:18;;;;;;;7.13;3.50;;;;;;;;;;5113710;28;20018;-75
2022/06/18 01:30:45;;;;;;;10.13;3.42;;;538.40;1920.00;;;;;;5113853;28;20027;-74
2022/06/18 01:33:12;;;;;;;6.85;3.38;;;538.50;1920.00;;;;;;5113613;28;20015;-74
2022/06/18 01:35:41;;;;;;;6.25;3.95;;;538.30;1945.60;;;;;;5113692;28;20016;-75
2022/06/18 01:38:07;;;;;;;6.40;3.13;;;;;;;;;;5113530;28;20102;-75
2022/06/18 01:40:45;;;;;;;6.45;3.38;;;;;;;;;;5113566;28;20044;-75
2022/06/18 01:43:14;;;;;;;6.63;3.42;;;;;;;;;;5112231;28;20039;-74
2022/06/18 01:45:41;;;;;;;5.38;3.63;;;;;;;;;;5113264;28;20042;-74
2022/06/18 01:48:09;;;;;;;6.90;3.92;;;;;;;;;;5113528;28;20493;-75
2022/06/18 01:50:48;;;;;;;5.53;3.35;;;;;;;;;;5113355;28;20103;-74
2022/06/18 01:53:17;;;;;;;5.10;3.08;;;;;;;;;;5112343;28;20099;-75
2022/06/18 01:55:48;;;;;;;7.72;3.58;;;537.90;1971.20;;;;;;5110720;28;20027;-75
2022/06/18 01:58:19;;;;;;;5.68;3.40;;;537.90;1996.80;;;;;;5094839;28;20504;-75
2022/06/18 02:00:49;;;;;;;5.82;3.28;;;538.00;1996.80;;;;;;5110697;28;20485;-74
2022/06/18 02:03:15;;;;;;;4.07;3.30;;;538.00;1971.20;;;;;;5113075;28;20024;-74
2022/06/18 02:05:41;;;;;;;8.93;3.22;;;538.00;1996.80;;;;;;5094446;28;20396;-74
2022/06/18 02:08:09;;;;;;;8.00;3.90;;;537.90;1996.80;;;;;;5112735;28;20386;-74
2022/06/18 02:10:58;;;;;;;4.70;3.42;;;537.90;1996.80;;;;;;5112907;28;20019;-74
2022/06/18 02:13:31;;;;;;;8.25;3.92;;;537.90;1996.80;;;;;;5110515;28;20011;-74
2022/06/18 02:15:58;;;;;;;4.10;2.92;;;537.80;2022.40;;;;;;5112720;28;20039;-75
2022/06/18 02:18:27;;;;;;;6.93;3.67;;;537.70;2022.40;;;;;;5110284;28;20062;-75
2022/06/18 02:20:56;;;;;;;5.30;3.40;;;537.70;2022.40;;;;;;5113084;28;20023;-75
2022/06/18 02:23:23;;;;;;;10.98;3.60;;;537.70;2022.40;;;;;;5112803;28;20024;-74
2022/06/18 02:25:49;;;;;;;7.03;3.88;;;537.60;2022.40;;;;;;5112943;28;20012;-75
2022/06/18 02:28:29;;;;;;;9.20;3.53;;;537.60;2022.40;;;;;;5112644;28;20027;-74
2022/06/18 02:31:00;;;;;;;8.32;3.75;;;537.60;2022.40;;;;;;5111425;28;20023;-75
2022/06/18 02:33:39;;;;;;;8.20;3.97;;;537.60;2022.40;;;;;;5110041;28;20012;-74
2022/06/18 02:36:29;;;;;;;4.63;3.50;;;537.60;2048.00;;;;;;5109762;28;20503;-75
2022/06/18 02:39:17;;;;;;;7.22;3.67;;;537.60;2022.40;;;;;;5111435;28;20028;-74
2022/06/18 02:41:44;;;;;;;6.72;3.58;;;512.90;2022.40;;;;;;5112316;28;20077;-74
2022/06/18 02:44:12;;;;;;;7.10;3.67;;;537.80;2048.00;;;;;;5112352;28;20015;-74
2022/06/18 02:46:39;;;;;;;4.88;3.40;;;512.80;2048.00;;;;;;5112531;28;20015;-74
2022/06/18 02:49:07;;;;;;;7.13;4.07;;;512.80;2048.00;;;;;;5091179;28;20027;-74
2022/06/18 02:51:34;;;;;;;6.35;3.90;;;512.70;2073.60;;;;;;5112291;28;20024;-74
2022/06/18 02:54:00;;;;;;;11.23;4.25;;;512.70;2073.60;;;;;;5112365;28;20020;-74
2022/06/18 02:56:26;;;;;;;9.27;4.47;;;512.70;2073.60;;;;;;5112381;28;20417;-74
2022/06/18 02:58:52;;;;;;;10.00;4.93;;;512.70;2073.60;;;;;;5112319;28;20031;-75
2022/06/18 03:01:25;;;;;;;10.63;5.43;;;512.70;2073.60;;;;;;5112018;28;20473;-74
2022/06/18 03:03:55;;;;;;;11.85;5.00;;;512.60;2099.20;;;;;;5091893;28;20385;-75
2022/06/18 03:06:24;;;;;;;7.00;4.60;;;512.70;2099.20;;;;;;5112061;28;20031;-74
2022/06/18 03:08:50;;;;;;;11.68;4.78;;;512.50;2099.20;;;;;;5112128;28;20023;-74
2022/06/18 03:14:04;;;;;;;;;;;512.60;2099.20;;;;;;5111885;28;20131;-75
2022/06/18 03:16:30;;;;;;;17.55;3.75;;;512.50;2124.80;;;;;;5112201;28;19946;-75
2022/06/18 03:18:57;;;;;;;6.45;3.60;;;;;;;;;;5093761;28;20067;-74
2022/06/18 03:21:31;;;;;;;7.55;3.60;;;;;;;;;;5097864;28;20570;-75
2022/06/18 03:23:57;;;;;;;7.50;4.07;;;512.10;2150.40;;;;;;5116513;28;20505;-74
2022/06/18 03:26:23;;;;;;;11.30;3.75;;;512.10;2176.00;;;;;;5116234;28;20085;-74
2022/06/18 03:28:49;;;;;;;7.30;3.35;;;512.10;2201.60;;;;;;5116321;28;20024;-74
2022/06/18 03:31:15;;;;;;;7.65;3.55;;;512.20;2201.60;;;;;;5115890;28;20537;-75
2022/06/18 03:33:41;;;;;;;8.23;4.10;;;512.10;2201.60;;;;;;5116123;28;20031;-75
2022/06/18 03:36:10;;;;;;;9.82;4.18;;;512.20;2227.20;;;;;;5113020;28;20011;-75
2022/06/18 03:38:37;;;;;;;6.18;4.20;;;512.40;2201.60;;;;;;5116065;28;20031;-75
2022/06/18 03:41:02;;;;;;;9.25;3.97;;;512.40;2201.60;;;;;;5115724;28;20048;-74
2022/06/18 03:43:28;;;;;;;6.68;3.72;;;512.50;2176.00;;;;;;5116224;28;20024;-74
2022/06/18 03:46:01;;;;;;;5.85;3.78;;;512.50;2176.00;;;;;;5115731;28;20050;-74
2022/06/18 03:49:08;;;;;;;6.22;3.97;;;512.60;2176.00;;;;;;5115899;28;20050;-75
2022/06/18 03:51:34;;;;;;;7.85;3.70;;;512.70;2150.40;;;;;;5111820;28;20131;-74
2022/06/18 03:54:00;;;;;;;6.30;3.78;;;512.50;2176.00;;;;;;5115942;28;20016;-74
2022/06/18 03:56:30;;;;;;;9.63;4.53;;;512.50;2227.20;;;;;;5115717;28;20020;-74
2022/06/18 03:58:56;;;;;;;6.15;3.72;;;512.60;2201.60;;;;;;5097794;28;20027;-75
2022/06/18 04:01:28;;;;;;;9.65;3.80;;;512.60;2201.60;;;;;;5097033;28;20102;-75
2022/06/18 04:03:54;;;;;;;8.43;4.43;;;512.60;2201.60;;;;;;5113500;28;20076;-74
2022/06/18 04:06:21;;;;;;;8.23;4.00;;;512.60;2201.60;;;;;;5096749;28;20419;-75
2022/06/18 04:08:47;;;;;;;10.70;4.45;;;512.60;2201.60;;;;;;5096631;28;20032;-75
2022/06/18 04:11:13;;;;;;;8.00;3.70;;;512.60;2176.00;;;;;;5097486;28;20427;-75
2022/06/18 04:13:39;;;;;;;9.85;4.07;;;512.60;2227.20;;;;;;5115172;28;20027;-74
2022/06/18 04:16:06;;;;;;;6.53;4.10;;;512.70;2176.00;;;;;;5115349;28;20484;-74
2022/06/18 04:18:32;;;;;;;9.30;4.13;;;512.70;2176.00;;;;;;5115075;28;20172;-74
2022/06/18 04:20:59;;;;;;;9.25;3.45;;;512.60;2227.20;;;;;;5096944;28;20011;-74
2022/06/18 04:23:25;;;;;;;8.32;4.07;;;512.70;2227.20;;;;;;5096852;28;20031;-74
2022/06/18 04:25:51;;;;;;;7.00;4.00;;;512.70;2227.20;;;;;;5115209;28;20034;-75
2022/06/18 04:28:18;;;;;;;5.80;3.97;;;512.90;2227.20;;;;;;5096667;28;20016;-75
2022/06/18 04:30:46;;;;;;;7.32;3.88;;;512.80;2227.20;;;;;;5096278;28;20031;-74
2022/06/18 04:33:12;;;;;;;10.77;3.85;;;512.80;2227.20;;;;;;5115127;28;20020;-74
2022/06/18 04:35:38;;;;;;;6.78;4.65;;;512.90;2201.60;;;;;;5096411;28;20024;-74
2022/06/18 04:38:05;;;;;;;7.03;3.85;;;512.90;2201.60;;;;;;5115019;28;20031;-74
2022/06/18 04:40:33;;;;;;;10.30;3.92;;;537.70;2227.20;;;;;;5111939;28;20083;-74
2022/06/18 04:43:07;;;;;;;4.75;3.50;;;537.60;2252.80;;;;;;5115021;28;20016;-77
2022/06/18 04:45:34;;;;;;;6.75;3.80;;;537.60;2252.80;;;;;;5112442;28;20024;-75
2022/06/18 04:48:00;;;;;;;13.27;3.85;;;537.80;2252.80;;;;;;5114866;28;20012;-76
2022/06/18 04:50:31;;;;;;;8.18;3.92;;;537.90;2252.80;;;;;;5114561;28;20024;-76
2022/06/18 04:52:56;;;;;;;8.43;4.00;;;537.90;2227.20;;;;;;5114739;28;20038;-76
2022/06/18 04:55:22;;;;;;;10.55;3.50;;;537.90;2227.20;;;;;;5096394;28;20466;-76
2022/06/18 04:57:48;;;;;;;10.48;3.75;;;537.90;2252.80;;;;;;5095941;28;20034;-76
2022/06/18 05:00:15;;;;;;;8.93;4.28;;;537.80;2278.40;;;;;;5114535;28;20032;-76
2022/06/18 05:02:41;;;;;;;4.60;3.63;;;538.00;2227.20;;;;;;5114476;28;20023;-76
2022/06/18 05:05:17;;;;;;;7.82;3.92;;;538.00;2227.20;;;;;;5095657;28;20084;-77
2022/06/18 05:07:43;;;;;;;6.75;3.63;;;538.00;2201.60;;;;;;5114402;28;20068;-77
2022/06/18 05:10:10;;;;;;;7.20;3.42;;;538.20;2201.60;;;;;;5114187;28;20024;-76
2022/06/18 05:12:37;;;;;;;9.00;3.22;;;538.20;2176.00;;;;;;5114477;28;20019;-76
2022/06/18 05:15:04;;;;;;;7.78;3.65;;;538.20;2201.60;;;;;;5095977;28;20028;-77
2022/06/18 05:17:32;;;;;;;4.97;3.17;;;538.30;2124.80;;;;;;5095954;28;20023;-77
2022/06/18 05:19:58;;;;;;;5.45;3.63;;;538.40;2124.80;;;;;;5113943;28;20094;-76
2022/06/18 05:22:24;;;;;;;6.00;3.53;;;538.50;2150.40;;;;;;5095974;28;20482;-76
2022/06/18 05:24:50;;;;;;;9.25;3.50;;;538.50;2099.20;;;;;;5113889;28;20035;-76
2022/06/18 05:27:25;;;;;;;5.63;3.50;;;563.20;2124.80;;;;;;5095340;28;20036;-77
2022/06/18 05:29:51;;;;;;;6.78;3.60;;;563.30;2099.20;;;;;;5095763;28;20080;-77
2022/06/18 05:32:17;;;;;;;4.40;3.17;;;563.30;2099.20;;;;;;5095611;28;20024;-77
2022/06/18 05:34:43;;;;;;;7.68;3.95;;;563.40;2099.20;;;;;;5114018;28;20022;-76
2022/06/18 05:37:16;;;;;;;6.88;3.20;;;563.50;2073.60;;;;;;5113789;28;20068;-77
2022/06/18 05:39:42;;;;;;;4.05;2.67;;;;;;;;;;5113643;28;20044;-77
2022/06/18 05:42:08;;;;;;;6.75;3.10;;;563.70;2022.40;;;;;;5112820;28;20080;-75
2022/06/18 05:44:35;;;;;;;6.90;3.00;;;563.90;2022.40;;;;;;5113816;28;20448;-76
2022/06/18 05:47:02;;;;;;;6.00;3.20;;;564.00;2022.40;;;;;;5113660;28;20019;-76
2022/06/18 05:49:28;;;;;;;4.40;3.10;;;564.10;2048.00;;;;;;5113702;28;20020;-74
2022/06/18 05:51:54;;;;;;;12.45;2.65;;;588.80;1996.80;;;;;;5113170;28;20020;-74
2022/06/18 05:54:19;;;;;;;7.63;3.20;;;588.80;1920.00;;;;;;5113368;28;20354;-74
2022/06/18 05:56:45;;;;;;;10.90;3.05;;;588.80;1920.00;;;;;;5113411;28;20015;-75
2022/06/18 05:59:11;;;;;;;12.35;3.40;;;588.80;1894.40;;;;;;5113102;28;20030;-75
2022/06/18 06:01:37;;;;;;;7.85;3.20;;;588.90;1945.60;;;;;;5113221;28;20475;-80
2022/06/18 06:04:03;;;;;;;5.57;2.80;;;589.10;1920.00;;;;;;5094507;28;20042;-75
2022/06/18 06:06:29;;;;;;;6.35;3.70;;;589.10;1868.80;;;;;;5113370;28;20019;-78
2022/06/18 06:08:55;;;;;;;5.85;3.10;;;589.20;1843.20;;;;;;5094913;28;20092;-78
2022/06/18 06:11:29;;;;;;;5.93;2.83;;;589.30;1868.80;;;;;;5113346;28;20015;-79
2022/06/18 06:13:57;;;;;;;5.38;3.05;;;589.40;1817.60;;;;;;5091592;28;20034;-78
2022/06/18 06:16:23;;;;;;;4.93;2.88;;;589.50;1792.00;;;;;;5113230;28;20018;-78
2022/06/18 06:18:50;;;;;;;7.68;3.50;;;589.50;1792.00;;;;;;5094689;28;20036;-78
2022/06/18 06:21:16;;;;;;;5.97;3.30;;;589.60;1792.00;;;;;;5094594;28;20051;-78
2022/06/18 06:23:42;;;;;;;5.18;3.13;;;589.70;1766.40;;;;;;5113342;28;20495;-77
2022/06/18 06:26:35;;;;;;;8.07;3.65;;;614.40;1740.80;;;;;;5112687;28;20020;-77
2022/06/18 06:29:01;;;;;;;4.82;2.58;;;614.50;1766.40;;;;;;5109671;28;20030;-78
2022/06/18 06:31:27;;;;;;;6.75;3.17;;;614.50;1740.80;;;;;;5094608;28;20385;-76
2022/06/18 06:33:53;;;;;;;6.30;2.55;;;614.60;1715.20;;;;;;5112586;28;20102;-77
2022/06/18 06:36:20;;;;;;;5.30;2.70;;;614.70;1664.00;;;;;;5094451;28;20095;-77
2022/06/18 06:38:45;;;;;;;5.57;2.38;;;614.80;1689.60;;;;;;5094061;28;20126;-77
2022/06/18 06:41:17;;;;;;;8.20;2.65;;;614.90;1664.00;;;;;;5112444;28;20170;-76
2022/06/18 06:43:43;;;;;;;6.88;2.70;;;614.90;1638.40;;;;;;5094164;28;20072;-77
2022/06/18 06:46:15;;;;;;;4.53;2.20;;;615.10;1638.40;;;;;;5112587;28;20016;-77
2022/06/18 06:48:42;;;;;;;4.78;2.42;;;615.20;1612.80;;;;;;5110606;28;20015;-77
2022/06/18 06:51:24;;;;;;;7.20;2.47;;;615.30;1561.60;;;;;;5094040;28;20023;-77
2022/06/18 06:53:50;;;;;;;6.88;2.33;;;615.30;1587.20;;;;;;5093421;28;20020;-77
2022/06/18 06:59:03;;;;;;;4.15;2.35;;;640.20;1536.00;;;;;;5110697;28;20096;-76
2022/06/18 07:01:29;;;;;;;6.10;2.20;;;640.40;1587.20;;;;;;5104331;28;20027;-77
2022/06/18 07:03:55;;;;;;;6.13;2.33;;;640.40;1536.00;;;;;;5093789;28;20473;-76
2022/06/18 07:06:21;;;;;;;3.58;2.10;;;640.50;1510.40;;;;;;5093940;28;20016;-77
2022/06/18 07:08:47;;;;;;;8.00;2.63;;;640.60;1459.20;;;;;;5112106;28;20030;-77
2022/06/18 07:11:14;;;;;;;5.85;2.10;;;640.70;1484.80;;;;;;5112569;28;20102;-76
2022/06/18 07:13:40;;;;;;;4.57;1.83;;;665.60;1510.40;;;;;;5112127;28;20020;-76
2022/06/18 07:16:08;;;;;;;3.42;2.10;;;665.60;1510.40;;;;;;5112190;28;20060;-78
2022/06/18 07:18:35;;;;;;;3.20;2.13;;;665.70;1459.20;;;;;;5112279;28;20133;-76
2022/06/18 07:21:05;;;;;;;4.47;2.30;;;665.80;1459.20;;;;;;5111852;28;20064;-77
2022/06/18 07:23:31;;;;;;;5.35;2.05;;;665.90;1433.60;;;;;;5112464;28;20025;-76
2022/06/18 07:25:57;;;;;;;5.78;2.03;;;666.00;1408.00;;;;;;5111964;28;20026;-76
2022/06/18 07:28:24;;;;;;;6.68;2.00;;;666.20;1408.00;;;;;;5112219;28;20023;-77
2022/06/18 07:30:50;;;;;;;3.53;1.80;;;666.40;1408.00;;;;;;5112018;28;20023;-76
2022/06/18 07:33:24;;;;;;;4.47;2.05;;;666.50;1356.80;;;;;;5093557;28;20039;-76
2022/06/18 07:35:51;;;;;;;2.83;1.75;;;691.20;1331.20;;;;;;5111839;28;20058;-77
2022/06/18 07:38:17;;;;;;;3.13;1.75;;;691.20;1356.80;;;;;;5111850;28;20484;-76
2022/06/18 07:40:47;;;;;;;5.65;1.88;;;691.40;1331.20;;;;;;5111902;28;20040;-77
2022/06/18 07:43:24;;;;;;;4.20;1.80;;;691.30;1331.20;;;;;;5111917;28;20028;-77
2022/06/18 07:45:50;;;;;;;6.10;2.58;;;691.30;1356.80;;;;;;5113202;28;20035;-76
2022/06/18 07:48:16;;;;;;;4.70;1.80;;;691.40;1382.40;;;;;;5114146;28;20023;-77
2022/06/18 07:50:43;;;;;;;6.07;1.77;;;691.30;1331.20;;;;;;5101179;28;20028;-77
2022/06/18 07:53:23;;;;;;;6.10;1.95;;;691.30;1331.20;;;;;;5099079;28;20909;-77
2022/06/18 07:55:49;;;;;;;7.55;2.53;;;691.30;1305.60;;;;;;5132536;28;20027;-77
2022/06/18 07:58:16;;;;;;;5.72;2.33;;;691.40;1280.00;;;;;;5094659;28;20076;-77
2022/06/18 08:00:42;;;;;;;7.25;1.80;;;691.60;1280.00;;;;;;5123453;28;20046;-77
2022/06/18 08:03:11;;;;;;;3.20;1.92;;;691.60;1254.40;;;;;;5129224;28;20028;-77
2022/06/18 08:05:38;;;;;;;2.92;1.77;;;691.80;1254.40;;;;;;5122969;27;20027;-77
2022/06/18 08:08:04;;;;;;;4.25;1.65;;;691.90;1254.40;;;;;;5118104;27;20047;-77
2022/06/18 08:10:31;;;;;;;4.07;1.80;;;691.90;1228.80;;;;;;5119804;27;20062;-77
2022/06/18 08:12:57;;;;;;;5.00;2.05;;;691.90;1254.40;;;;;;5097042;28;20026;-77
2022/06/18 08:15:23;;;;;;;3.97;1.70;;;692.00;1228.80;;;;;;5115439;28;20411;-77
2022/06/18 08:17:48;;;;;;;3.22;1.73;;;692.10;1228.80;;;;;;5115166;28;20015;-76
2022/06/18 08:20:14;;;;;;;6.68;2.20;;;691.90;1254.40;;;;;;5115395;28;20030;-76
2022/06/18 08:22:44;;;;;;;3.05;1.80;;;692.10;1228.80;;;;;;5114958;28;20040;-77
2022/06/18 08:25:11;;;;;;;6.30;2.17;;;716.90;1280.00;;;;;;5115213;28;20019;-77
2022/06/18 08:27:37;;;;;;;4.45;1.92;;;716.80;1254.40;;;;;;5115038;28;20064;-79
2022/06/18 08:30:04;;;;;;;12.00;1.83;;;692.10;1203.20;;;;;;5097014;28;20504;-77
2022/06/18 08:32:30;;;;;;;3.70;2.03;;;716.80;1254.40;;;;;;5096542;28;20181;-78
2022/06/18 08:34:56;;;;;;;4.35;1.80;;;716.90;1280.00;;;;;;5097047;28;20531;-75
2022/06/18 08:37:22;;;;;;;3.63;1.80;;;717.00;1254.40;;;;;;5096689;28;20023;-76
2022/06/18 08:39:48;;;;;;;3.70;1.88;;;717.00;1254.40;;;;;;5114624;28;20039;-77
2022/06/18 08:42:14;;;;;;;2.97;2.05;;;717.10;1280.00;;;;;;5114969;28;20035;-77
2022/06/18 08:45:16;;;;;;;3.33;1.70;;;717.10;1228.80;;;;;;5111912;28;20120;-77
2022/06/18 08:47:55;;;;;;;7.63;2.22;;;717.20;1203.20;;;;;;5093818;28;20016;-77
2022/06/18 08:50:32;;;;;;;4.22;1.70;;;717.20;1203.20;;;;;;5112262;28;20015;-76
2022/06/18 08:53:07;;;;;;;7.72;1.88;;;717.30;1152.00;;;;;;5096250;28;20396;-76
2022/06/18 08:55:51;;;;;;;4.45;1.60;;;717.30;1177.60;;;;;;5110762;28;20098;-77
2022/06/18 08:58:25;;;;;;;3.30;1.80;;;717.40;1177.60;;;;;;5128781;27;20039;-77
2022/06/18 09:01:14;;;;;;;4.05;1.98;;;717.40;1152.00;;;;;;5107405;27;20019;-77
2022/06/18 09:04:19;;;;;;;13.88;2.25;;;717.50;1152.00;;;;;;5116553;27;20038;-76
2022/06/18 09:06:47;;;;;;;3.80;1.85;;;717.50;1126.40;;;;;;5135189;27;20358;-77
2022/06/18 09:09:32;;;;;;;4.45;1.75;;;717.70;1100.80;;;;;;5135323;27;20015;-77
2022/06/18 09:12:09;;;;;;;7.72;2.35;;;717.70;1049.60;;;;;;5135356;27;20034;-77
2022/06/18 09:14:44;;;;;;;5.28;2.25;;;742.50;1075.20;;;;;;5101851;28;20473;-77
2022/06/18 09:17:23;;;;;;;4.82;1.80;;;742.50;1075.20;;;;;;5110312;27;20019;-77
2022/06/18 09:20:14;;;;;;;4.18;1.83;;;742.50;1100.80;;;;;;5116733;27;20391;-77
2022/06/18 09:22:52;;;;;;;7.30;1.73;;;742.60;1049.60;;;;;;5116284;27;20022;-76
2022/06/18 09:25:22;;;;;;;5.80;2.22;;;742.70;1049.60;;;;;;5134890;27;20054;-77
2022/06/18 09:28:00;;;;;;;8.45;1.98;;;742.80;1024.00;;;;;;5097292;28;20362;-76
2022/06/18 09:30:43;;;;;;;4.22;1.90;;;742.80;1024.00;;;;;;5114147;28;20024;-77
2022/06/18 09:33:19;;;;;;;8.07;2.20;;;743.00;998.40;;;;;;5095809;28;20035;-77
2022/06/18 09:35:49;;;;;;;2.67;1.70;;;743.10;998.40;;;;;;5128563;27;20477;-77
2022/06/18 09:38:26;;;;;;;6.85;1.70;;;743.20;998.40;;;;;;5115878;27;20076;-77
2022/06/18 09:40:56;;;;;;;3.65;1.80;;;743.30;1024.00;;;;;;5120195;27;20047;-74
2022/06/18 09:43:57;;;;;;;6.25;1.80;;;768.10;998.40;;;;;;5120667;27;20046;-76
2022/06/18 09:46:48;;;;;;;3.53;1.88;;;743.00;972.80;;;;;;5113890;28;20420;-77
2022/06/18 09:49:13;;;;;;;3.20;1.83;;;768.00;972.80;;;;;;5111501;28;20069;-76
2022/06/18 09:52:05;;;;;;;4.70;1.63;;;768.10;972.80;;;;;;5113505;28;20066;-77
2022/06/18 09:54:45;;;;;;;4.18;1.73;;;768.40;972.80;;;;;;5093267;28;20038;-77
2022/06/18 09:57:15;;;;;;;4.18;1.40;;;768.50;972.80;;;;;;5093117;28;20024;-75
2022/06/18 10:00:05;;;;;;;5.05;2.45;;;768.80;972.80;;;;;;5113259;28;20032;-77
2022/06/18 10:02:34;;;;;;;4.70;1.80;;;768.30;947.20;;;;;;5094507;28;20023;-75
2022/06/18 10:07:51;;;;;;;4.75;2.17;;;768.50;921.60;;;;;;5112167;28;20080;-76
2022/06/18 10:10:25;;;;;;;3.80;1.70;;;768.20;947.20;;;;;;5110684;28;20027;-76
2022/06/18 10:12:54;;;;;;;2.47;1.60;;;768.00;972.80;;;;;;5112462;28;20025;-75
2022/06/18 10:15:21;;;;;;;2.63;1.73;;;768.50;972.80;;;;;;5111978;28;20038;-76
2022/06/18 10:17:50;;;;;;;4.50;1.80;;;768.80;921.60;;;;;;5112650;28;20102;-76
2022/06/18 10:20:44;;;;;;;5.03;2.10;;;793.70;947.20;;;;;;5094760;28;20396;-75
2022/06/18 10:23:29;;;;;;;2.63;1.60;;;793.90;947.20;;;;;;5127591;27;20015;-76
2022/06/18 10:26:17;;;;;;;4.90;1.60;;;794.20;896.00;;;;;;5113453;28;20557;-75
2022/06/18 10:28:48;;;;;;;13.85;2.63;;;768.90;896.00;;;;;;5106248;27;20027;-76
2022/06/18 10:31:31;;;;;;;9.35;1.80;;;768.40;947.20;;;;;;5119860;27;20019;-77
2022/06/18 10:34:23;;;;;;;2.70;1.75;;;768.60;921.60;;;;;;5108987;27;20027;-75
2022/06/18 10:37:03;;;;;;;2.28;1.48;;;793.80;947.20;;;;;;5030125;28;20029;-78
2022/06/18 10:39:49;;;;;;;4.50;2.00;;;794.00;921.60;;;;;;5029967;28;20045;-75
2022/06/18 10:42:29;;;;;;;3.60;1.60;;;794.20;896.00;;;;;;5015347;28;20172;-74
2022/06/18 10:45:01;;;;;;;6.85;1.85;;;793.90;947.20;;;;;;5010302;28;20030;-76
2022/06/18 10:47:36;;;;;;;9.68;1.92;;;794.00;947.20;;;;;;5009928;28;20145;-76
2022/06/18 10:50:16;;;;;;;2.42;1.50;;;794.00;896.00;;;;;;4994045;28;20764;-75
2022/06/18 10:52:43;;;;;;;4.15;1.50;;;793.90;896.00;;;;;;5001043;28;20076;-76
2022/06/18 10:55:19;;;;;;;4.68;1.70;;;794.20;921.60;;;;;;5016936;28;20029;-76
2022/06/18 10:57:45;;;;;;;7.50;1.92;;;794.20;921.60;;;;;;5010454;28;20506;-75
2022/06/18 11:00:28;;;;;;;3.88;1.73;;;819.20;896.00;;;;;;5010378;28;20522;-76
2022/06/18 11:02:57;;;;;;;3.35;1.45;;;794.50;870.40;;;;;;5017117;28;20539;-78
2022/06/18 11:05:35;;;;;;;5.10;1.85;;;819.30;870.40;;;;;;5030059;28;20029;-78
2022/06/18 11:08:04;;;;;;;3.70;2.05;;;819.20;896.00;;;;;;5029701;28;20065;-76
2022/06/18 11:10:49;;;;;;;2.00;1.40;;;819.50;896.00;;;;;;5016596;28;20112;-75
2022/06/18 11:13:38;;;;;;;4.47;1.95;;;819.40;896.00;;;;;;5034745;28;20078;-76
2022/06/18 11:16:13;;;;;;;3.35;1.80;;;819.60;870.40;;;;;;5110138;28;20031;-76
2022/06/18 11:18:59;;;;;;;4.80;2.00;;;819.60;870.40;;;;;;5109495;28;20030;-75
2022/06/18 11:21:36;;;;;;;3.28;1.83;;;819.60;896.00;;;;;;5110601;28;20516;-77
2022/06/18 11:24:32;;;;;;;6.80;1.55;;;819.60;870.40;;;;;;5109834;28;20525;-79
2022/06/18 11:27:00;;;;;;;;;;;819.60;870.40;;;;;;5109873;28;20024;-75
2022/06/18 11:29:40;;;;;;;7.72;1.70;;;819.40;870.40;;;;;;5111955;28;19907;-78
2022/06/18 11:32:34;;;;;;;5.70;1.80;;;819.60;870.40;;;;;;5110772;28;20020;-78
2022/06/18 11:35:20;;;;;;;2.78;1.50;;;819.70;896.00;;;;;;5110150;28;20035;-76
2022/06/18 11:38:06;;;;;;;2.78;1.33;;;819.60;870.40;;;;;;5110221;28;20481;-76
2022/06/18 11:40:32;;;;;;;4.45;1.40;;;819.70;870.40;;;;;;5091658;28;20052;-77
2022/06/18 11:43:09;;;;;;;3.15;1.60;;;819.70;870.40;;;;;;5115877;28;20027;-78
2022/06/18 11:45:53;;;;;;;4.45;1.50;;;819.80;870.40;;;;;;5097971;28;20365;-79
2022/06/18 11:48:45;;;;;;;5.72;1.80;;;819.90;870.40;;;;;;5111147;27;20019;-78
2022/06/18 11:51:13;;;;;;;10.15;1.92;;;819.70;870.40;;;;;;5117954;27;20388;-79
2022/06/18 11:54:06;;;;;;;5.25;1.60;;;819.90;870.40;;;;;;5136528;27;20024;-77
2022/06/18 11:56:57;;;;;;;6.15;1.40;;;820.00;844.80;;;;;;5136507;27;20027;-78
2022/06/18 11:59:49;;;;;;;4.97;1.25;;;819.90;870.40;;;;;;5122074;27;20040;-76
2022/06/18 12:02:32;;;;;;;2.88;1.13;;;820.00;844.80;;;;;;5136482;27;20023;-76
2022/06/18 12:05:04;;;;;;;4.68;1.35;;;820.10;844.80;;;;;;5117698;27;20060;-77
2022/06/18 12:07:38;;;;;;;2.20;1.70;;;820.10;870.40;;;;;;5136561;27;20067;-77
2022/06/18 12:10:09;;;;;;;2.40;1.52;;;820.10;870.40;;;;;;5118184;27;20029;-77
2022/06/18 12:12:41;;;;;;;2.45;1.42;;;844.80;870.40;;;;;;5124788;27;20089;-76
2022/06/18 12:15:15;;;;;;;2.67;1.55;;;820.10;870.40;;;;;;5134188;27;20354;-77
2022/06/18 12:17:47;;;;;;;3.50;1.52;;;844.80;870.40;;;;;;5136312;27;20072;-77
2022/06/18 12:20:40;;;;;;;4.07;1.67;;;820.10;844.80;;;;;;5122024;27;20097;-76
2022/06/18 12:23:11;;;;;;;3.50;1.48;;;844.80;870.40;;;;;;5115341;28;20023;-77
2022/06/18 12:26:20;;;;;;;4.50;1.75;;;844.80;870.40;;;;;;5115162;28;20023;-77
2022/06/18 12:28:53;;;;;;;8.73;2.00;;;844.80;870.40;;;;;;5112840;28;20015;-75
2022/06/18 12:31:27;;;;;;;4.85;2.25;;;845.00;844.80;;;;;;5114595;28;20041;-76
2022/06/18 12:34:25;;;;;;;4.40;1.70;;;845.00;844.80;;;;;;5127167;27;20504;-77
2022/06/18 12:37:10;;;;;;;4.63;1.75;;;844.90;844.80;;;;;;5031937;28;20030;-76
2022/06/18 12:39:47;;;;;;;5.03;1.60;;;844.90;844.80;;;;;;5030527;28;20054;-76
2022/06/18 12:42:43;;;;;;;4.80;1.70;;;820.10;844.80;;;;;;5029564;28;20501;-76
2022/06/18 12:45:19;;;;;;;3.55;1.67;;;844.80;844.80;;;;;;5015582;28;20407;-77
2022/06/18 12:48:15;;;;;;;1.95;1.15;;;844.90;870.40;;;;;;5032377;28;20064;-76
2022/06/18 12:50:52;;;;;;;2.65;1.50;;;844.90;844.80;;;;;;4953699;29;20031;-76
2022/06/18 12:53:35;;;;;;;4.22;1.60;;;845.00;870.40;;;;;;4951497;29;20039;-76
2022/06/18 12:56:18;;;;;;;1.80;1.38;;;845.10;870.40;;;;;;4953985;29;20039;-78
2022/06/18 12:59:02;;;;;;;13.40;1.63;;;845.00;870.40;;;;;;4954001;29;20512;-76
2022/06/18 13:02:04;;;;;;;4.50;1.70;;;845.00;870.40;;;;;;4953408;29;20065;-76
2022/06/18 13:04:37;;;;;;;3.10;1.85;;;844.90;870.40;;;;;;4950437;29;20544;-76